sensor_id;sensor_type;location;lat;lon;timestamp;temperature;humidity
14101;DHT22;7127;49.372;8.166;2023-04-06T00:02:26;7.70;35.90
14101;DHT22;7127;49.372;8.166;2023-04-06T00:04:53;7.70;35.90
14101;DHT22;7127;49.372;8.166;2023-04-06T00:07:20;7.80;36.00
14101;DHT22;7127;49.372;8.166;2023-04-06T00:09:48;7.60;35.90
14101;DHT22;7127;49.372;8.166;2023-04-06T00:12:15;7.60;35.90
14101;DHT22;7127;49.372;8.166;2023-04-06T00:14:42;7.50;35.90
14101;DHT22;7127;49.372;8.166;2023-04-06T00:17:09;7.70;36.10
14101;DHT22;7127;49.372;8.166;2023-04-06T00:19:35;8.10;36.40
14101;DHT22;7127;49.372;8.166;2023-04-06T00:22:02;7.60;36.00
14101;DHT22;7127;49.372;8.166;2023-04-06T00:24:29;7.40;36.00
14101;DHT22;7127;49.372;8.166;2023-04-06T00:26:58;7.60;36.70
14101;DHT22;7127;49.372;8.166;2023-04-06T00:29:25;7.50;36.10
14101;DHT22;7127;49.372;8.166;2023-04-06T00:31:52;7.50;36.00
14101;DHT22;7127;49.372;8.166;2023-04-06T00:34:19;7.50;36.10
14101;DHT22;7127;49.372;8.166;2023-04-06T00:36:45;7.50;36.10
14101;DHT22;7127;49.372;8.166;2023-04-06T00:39:12;7.50;36.10
14101;DHT22;7127;49.372;8.166;2023-04-06T00:41:42;7.40;36.10
14101;DHT22;7127;49.372;8.166;2023-04-06T00:44:14;7.50;36.20
14101;DHT22;7127;49.372;8.166;2023-04-06T00:46:41;7.40;36.20
14101;DHT22;7127;49.372;8.166;2023-04-06T00:49:08;7.40;36.10
14101;DHT22;7127;49.372;8.166;2023-04-06T00:51:35;7.50;36.20
14101;DHT22;7127;49.372;8.166;2023-04-06T00:54:02;7.40;36.30
14101;DHT22;7127;49.372;8.166;2023-04-06T00:56:29;7.40;36.40
14101;DHT22;7127;49.372;8.166;2023-04-06T00:58:56;7.40;36.40
14101;DHT22;7127;49.372;8.166;2023-04-06T01:01:24;7.40;36.40
14101;DHT22;7127;49.372;8.166;2023-04-06T01:03:51;7.40;36.40
14101;DHT22;7127;49.372;8.166;2023-04-06T01:06:19;7.40;36.50
14101;DHT22;7127;49.372;8.166;2023-04-06T01:08:46;7.30;36.40
14101;DHT22;7127;49.372;8.166;2023-04-06T01:11:13;7.30;36.50
14101;DHT22;7127;49.372;8.166;2023-04-06T01:13:39;7.30;36.80
14101;DHT22;7127;49.372;8.166;2023-04-06T01:16:07;7.20;36.70
14101;DHT22;7127;49.372;8.166;2023-04-06T01:18:37;7.20;36.80
14101;DHT22;7127;49.372;8.166;2023-04-06T01:21:04;7.10;36.80
14101;DHT22;7127;49.372;8.166;2023-04-06T01:23:35;7.00;36.90
14101;DHT22;7127;49.372;8.166;2023-04-06T01:26:02;7.10;36.90
14101;DHT22;7127;49.372;8.166;2023-04-06T01:28:29;6.90;36.90
14101;DHT22;7127;49.372;8.166;2023-04-06T01:30:56;6.90;36.80
14101;DHT22;7127;49.372;8.166;2023-04-06T01:33:22;6.90;37.00
14101;DHT22;7127;49.372;8.166;2023-04-06T01:35:49;6.80;37.00
14101;DHT22;7127;49.372;8.166;2023-04-06T01:38:16;6.80;37.60
14101;DHT22;7127;49.372;8.166;2023-04-06T01:40:44;6.70;37.30
14101;DHT22;7127;49.372;8.166;2023-04-06T01:43:11;6.80;37.30
14101;DHT22;7127;49.372;8.166;2023-04-06T01:45:38;6.70;37.40
14101;DHT22;7127;49.372;8.166;2023-04-06T01:48:06;6.60;37.40
14101;DHT22;7127;49.372;8.166;2023-04-06T01:50:33;6.60;37.60
14101;DHT22;7127;49.372;8.166;2023-04-06T01:53:00;6.50;37.40
14101;DHT22;7127;49.372;8.166;2023-04-06T01:55:27;6.50;37.50
14101;DHT22;7127;49.372;8.166;2023-04-06T01:57:55;6.40;37.50
14101;DHT22;7127;49.372;8.166;2023-04-06T02:00:22;6.30;37.40
14101;DHT22;7127;49.372;8.166;2023-04-06T02:02:49;6.40;37.50
14101;DHT22;7127;49.372;8.166;2023-04-06T02:05:16;6.40;37.60
14101;DHT22;7127;49.372;8.166;2023-04-06T02:07:43;6.30;37.50
14101;DHT22;7127;49.372;8.166;2023-04-06T02:10:12;6.30;37.50
14101;DHT22;7127;49.372;8.166;2023-04-06T02:12:38;6.30;37.50
14101;DHT22;7127;49.372;8.166;2023-04-06T02:15:08;6.30;37.50
14101;DHT22;7127;49.372;8.166;2023-04-06T02:17:35;6.30;37.70
14101;DHT22;7127;49.372;8.166;2023-04-06T02:20:01;6.40;37.90
14101;DHT22;7127;49.372;8.166;2023-04-06T02:22:28;6.20;37.70
14101;DHT22;7127;49.372;8.166;2023-04-06T02:24:56;6.20;37.80
14101;DHT22;7127;49.372;8.166;2023-04-06T02:27:23;6.20;38.00
14101;DHT22;7127;49.372;8.166;2023-04-06T02:29:50;6.20;38.00
14101;DHT22;7127;49.372;8.166;2023-04-06T02:32:19;6.10;38.00
14101;DHT22;7127;49.372;8.166;2023-04-06T02:34:46;6.20;38.00
14101;DHT22;7127;49.372;8.166;2023-04-06T02:37:12;6.10;37.90
14101;DHT22;7127;49.372;8.166;2023-04-06T02:39:40;6.20;38.00
14101;DHT22;7127;49.372;8.166;2023-04-06T02:42:07;6.10;37.80
14101;DHT22;7127;49.372;8.166;2023-04-06T02:44:34;6.10;37.90
14101;DHT22;7127;49.372;8.166;2023-04-06T02:47:01;6.10;38.10
14101;DHT22;7127;49.372;8.166;2023-04-06T02:49:30;6.60;38.30
14101;DHT22;7127;49.372;8.166;2023-04-06T02:51:56;6.10;38.10
14101;DHT22;7127;49.372;8.166;2023-04-06T02:54:23;6.10;37.80
14101;DHT22;7127;49.372;8.166;2023-04-06T02:56:50;6.10;37.80
14101;DHT22;7127;49.372;8.166;2023-04-06T02:59:17;6.10;38.00
14101;DHT22;7127;49.372;8.166;2023-04-06T03:01:44;6.30;38.40
14101;DHT22;7127;49.372;8.166;2023-04-06T03:04:11;6.00;38.10
14101;DHT22;7127;49.372;8.166;2023-04-06T03:06:39;6.00;38.20
14101;DHT22;7127;49.372;8.166;2023-04-06T03:09:06;6.00;38.40
14101;DHT22;7127;49.372;8.166;2023-04-06T03:11:33;6.00;38.70
14101;DHT22;7127;49.372;8.166;2023-04-06T03:14:00;5.90;38.90
14101;DHT22;7127;49.372;8.166;2023-04-06T03:16:27;5.90;38.80
14101;DHT22;7127;49.372;8.166;2023-04-06T03:18:53;5.80;38.70
14101;DHT22;7127;49.372;8.166;2023-04-06T03:21:20;5.80;38.70
14101;DHT22;7127;49.372;8.166;2023-04-06T03:23:48;5.80;38.60
14101;DHT22;7127;49.372;8.166;2023-04-06T03:26:16;5.70;38.60
14101;DHT22;7127;49.372;8.166;2023-04-06T03:28:43;5.70;39.20
14101;DHT22;7127;49.372;8.166;2023-04-06T03:31:10;5.70;38.70
14101;DHT22;7127;49.372;8.166;2023-04-06T03:33:36;5.70;38.50
14101;DHT22;7127;49.372;8.166;2023-04-06T03:36:04;5.90;38.90
14101;DHT22;7127;49.372;8.166;2023-04-06T03:38:31;5.70;38.60
14101;DHT22;7127;49.372;8.166;2023-04-06T03:40:59;5.60;38.60
14101;DHT22;7127;49.372;8.166;2023-04-06T03:43:26;5.60;38.60
14101;DHT22;7127;49.372;8.166;2023-04-06T03:45:53;5.70;39.00
14101;DHT22;7127;49.372;8.166;2023-04-06T03:48:20;5.60;38.80
14101;DHT22;7127;49.372;8.166;2023-04-06T03:50:47;5.60;38.60
14101;DHT22;7127;49.372;8.166;2023-04-06T03:53:14;6.60;39.50
14101;DHT22;7127;49.372;8.166;2023-04-06T03:55:40;5.60;39.50
14101;DHT22;7127;49.372;8.166;2023-04-06T03:58:08;5.70;39.60
14101;DHT22;7127;49.372;8.166;2023-04-06T04:00:35;5.60;39.60
14101;DHT22;7127;49.372;8.166;2023-04-06T04:03:02;5.70;39.30
14101;DHT22;7127;49.372;8.166;2023-04-06T04:05:29;5.50;39.30
14101;DHT22;7127;49.372;8.166;2023-04-06T04:07:56;5.60;39.30
14101;DHT22;7127;49.372;8.166;2023-04-06T04:10:23;5.40;39.20
14101;DHT22;7127;49.372;8.166;2023-04-06T04:12:50;5.40;39.00
14101;DHT22;7127;49.372;8.166;2023-04-06T04:26:04;5.50;39.30
14101;DHT22;7127;49.372;8.166;2023-04-06T04:28:31;5.70;41.90
14101;DHT22;7127;49.372;8.166;2023-04-06T04:30:58;5.80;40.90
14101;DHT22;7127;49.372;8.166;2023-04-06T04:33:25;5.70;40.40
14101;DHT22;7127;49.372;8.166;2023-04-06T04:35:52;6.40;41.10
14101;DHT22;7127;49.372;8.166;2023-04-06T04:38:19;5.70;40.20
14101;DHT22;7127;49.372;8.166;2023-04-06T04:40:46;5.70;40.10
14101;DHT22;7127;49.372;8.166;2023-04-06T04:43:14;5.70;40.10
14101;DHT22;7127;49.372;8.166;2023-04-06T04:45:41;5.60;40.10
14101;DHT22;7127;49.372;8.166;2023-04-06T04:48:07;5.60;40.00
14101;DHT22;7127;49.372;8.166;2023-04-06T04:50:34;5.60;39.90
14101;DHT22;7127;49.372;8.166;2023-04-06T04:53:01;5.60;40.10
14101;DHT22;7127;49.372;8.166;2023-04-06T04:55:30;5.50;40.00
14101;DHT22;7127;49.372;8.166;2023-04-06T04:57:57;5.50;40.00
14101;DHT22;7127;49.372;8.166;2023-04-06T05:00:25;5.50;40.00
14101;DHT22;7127;49.372;8.166;2023-04-06T05:02:52;5.50;40.30
14101;DHT22;7127;49.372;8.166;2023-04-06T05:05:19;5.50;40.30
14101;DHT22;7127;49.372;8.166;2023-04-06T05:07:46;5.50;40.20
14101;DHT22;7127;49.372;8.166;2023-04-06T05:10:13;5.50;40.20
14101;DHT22;7127;49.372;8.166;2023-04-06T05:12:39;5.40;40.30
14101;DHT22;7127;49.372;8.166;2023-04-06T05:15:07;6.00;40.40
14101;DHT22;7127;49.372;8.166;2023-04-06T05:17:35;5.40;40.20
14101;DHT22;7127;49.372;8.166;2023-04-06T05:20:03;5.40;40.30
14101;DHT22;7127;49.372;8.166;2023-04-06T05:22:29;5.40;41.00
14101;DHT22;7127;49.372;8.166;2023-04-06T05:24:56;5.40;40.10
14101;DHT22;7127;49.372;8.166;2023-04-06T05:27:23;5.40;40.40
14101;DHT22;7127;49.372;8.166;2023-04-06T05:29:50;5.40;40.50
14101;DHT22;7127;49.372;8.166;2023-04-06T05:32:17;5.40;40.30
14101;DHT22;7127;49.372;8.166;2023-04-06T05:34:48;5.40;40.30
14101;DHT22;7127;49.372;8.166;2023-04-06T05:37:15;5.40;40.30
14101;DHT22;7127;49.372;8.166;2023-04-06T05:39:42;5.40;40.30
14101;DHT22;7127;49.372;8.166;2023-04-06T05:42:09;5.50;40.50
14101;DHT22;7127;49.372;8.166;2023-04-06T05:44:37;5.50;40.60
14101;DHT22;7127;49.372;8.166;2023-04-06T05:47:04;5.50;40.50
14101;DHT22;7127;49.372;8.166;2023-04-06T05:49:30;5.50;40.60
14101;DHT22;7127;49.372;8.166;2023-04-06T05:51:59;5.60;40.70
14101;DHT22;7127;49.372;8.166;2023-04-06T05:54:26;5.60;40.70
14101;DHT22;7127;49.372;8.166;2023-04-06T05:56:53;5.60;40.60
14101;DHT22;7127;49.372;8.166;2023-04-06T05:59:19;5.60;40.70
14101;DHT22;7127;49.372;8.166;2023-04-06T06:01:46;5.70;40.70
14101;DHT22;7127;49.372;8.166;2023-04-06T06:04:13;5.70;40.80
14101;DHT22;7127;49.372;8.166;2023-04-06T06:06:40;5.70;41.00
14101;DHT22;7127;49.372;8.166;2023-04-06T06:09:08;5.80;41.10
14101;DHT22;7127;49.372;8.166;2023-04-06T06:11:35;5.80;41.20
14101;DHT22;7127;49.372;8.166;2023-04-06T06:14:02;5.80;41.20
14101;DHT22;7127;49.372;8.166;2023-04-06T06:16:30;5.90;41.20
14101;DHT22;7127;49.372;8.166;2023-04-06T06:18:56;5.90;41.30
14101;DHT22;7127;49.372;8.166;2023-04-06T06:21:23;5.90;41.20
14101;DHT22;7127;49.372;8.166;2023-04-06T06:23:51;6.00;41.30
14101;DHT22;7127;49.372;8.166;2023-04-06T06:26:21;6.50;41.80
14101;DHT22;7127;49.372;8.166;2023-04-06T06:28:48;6.10;41.50
14101;DHT22;7127;49.372;8.166;2023-04-06T06:31:14;6.10;41.50
14101;DHT22;7127;49.372;8.166;2023-04-06T06:33:41;6.10;41.50
14101;DHT22;7127;49.372;8.166;2023-04-06T06:36:08;6.20;41.60
14101;DHT22;7127;49.372;8.166;2023-04-06T06:38:35;6.20;41.60
14101;DHT22;7127;49.372;8.166;2023-04-06T06:41:03;6.30;41.60
14101;DHT22;7127;49.372;8.166;2023-04-06T06:43:31;6.30;41.60
14101;DHT22;7127;49.372;8.166;2023-04-06T06:45:58;6.70;41.90
14101;DHT22;7127;49.372;8.166;2023-04-06T06:48:25;6.40;41.60
14101;DHT22;7127;49.372;8.166;2023-04-06T06:50:52;6.50;41.60
14101;DHT22;7127;49.372;8.166;2023-04-06T06:53:19;6.50;41.60
14101;DHT22;7127;49.372;8.166;2023-04-06T06:55:46;6.60;41.70
14101;DHT22;7127;49.372;8.166;2023-04-06T06:58:14;6.60;41.80
14101;DHT22;7127;49.372;8.166;2023-04-06T07:00:42;6.70;41.90
14101;DHT22;7127;49.372;8.166;2023-04-06T07:03:09;6.70;41.60
14101;DHT22;7127;49.372;8.166;2023-04-06T07:05:36;6.70;42.30
14101;DHT22;7127;49.372;8.166;2023-04-06T07:08:03;6.80;41.70
14101;DHT22;7127;49.372;8.166;2023-04-06T07:10:30;6.80;41.70
14101;DHT22;7127;49.372;8.166;2023-04-06T07:12:57;6.90;41.60
14101;DHT22;7127;49.372;8.166;2023-04-06T07:15:24;6.90;41.70
14101;DHT22;7127;49.372;8.166;2023-04-06T07:17:52;7.00;41.90
14101;DHT22;7127;49.372;8.166;2023-04-06T07:20:19;7.00;41.90
14101;DHT22;7127;49.372;8.166;2023-04-06T07:22:46;7.10;42.00
14101;DHT22;7127;49.372;8.166;2023-04-06T07:25:14;7.50;42.30
14101;DHT22;7127;49.372;8.166;2023-04-06T07:27:41;7.30;42.20
14101;DHT22;7127;49.372;8.166;2023-04-06T07:30:08;7.50;42.30
14101;DHT22;7127;49.372;8.166;2023-04-06T07:32:35;7.40;42.30
14101;DHT22;7127;49.372;8.166;2023-04-06T07:35:04;7.60;42.30
14101;DHT22;7127;49.372;8.166;2023-04-06T07:37:31;7.60;42.30
14101;DHT22;7127;49.372;8.166;2023-04-06T07:39:59;7.70;42.40
14101;DHT22;7127;49.372;8.166;2023-04-06T07:42:26;7.70;42.30
14101;DHT22;7127;49.372;8.166;2023-04-06T07:44:53;7.80;42.30
14101;DHT22;7127;49.372;8.166;2023-04-06T07:47:20;8.20;42.60
14101;DHT22;7127;49.372;8.166;2023-04-06T07:49:47;8.10;42.40
14101;DHT22;7127;49.372;8.166;2023-04-06T07:52:15;8.00;42.30
14101;DHT22;7127;49.372;8.166;2023-04-06T07:54:42;8.10;42.30
14101;DHT22;7127;49.372;8.166;2023-04-06T07:57:09;8.30;42.40
14101;DHT22;7127;49.372;8.166;2023-04-06T07:59:36;8.50;42.50
14101;DHT22;7127;49.372;8.166;2023-04-06T08:02:04;8.30;42.30
14101;DHT22;7127;49.372;8.166;2023-04-06T08:04:31;8.40;42.30
14101;DHT22;7127;49.372;8.166;2023-04-06T08:06:58;8.80;42.60
14101;DHT22;7127;49.372;8.166;2023-04-06T08:09:26;8.50;42.40
14101;DHT22;7127;49.372;8.166;2023-04-06T08:11:53;8.60;42.30
14101;DHT22;7127;49.372;8.166;2023-04-06T08:14:20;8.70;42.40
14101;DHT22;7127;49.372;8.166;2023-04-06T08:16:47;8.80;42.40
14101;DHT22;7127;49.372;8.166;2023-04-06T08:19:14;9.00;42.60
14101;DHT22;7127;49.372;8.166;2023-04-06T08:21:42;9.00;42.50
14101;DHT22;7127;49.372;8.166;2023-04-06T08:24:09;9.00;42.40
14101;DHT22;7127;49.372;8.166;2023-04-06T08:26:38;9.10;42.70
14101;DHT22;7127;49.372;8.166;2023-04-06T08:29:05;9.20;42.80
14101;DHT22;7127;49.372;8.166;2023-04-06T08:31:33;9.40;42.90
14101;DHT22;7127;49.372;8.166;2023-04-06T08:34:00;9.40;42.80
14101;DHT22;7127;49.372;8.166;2023-04-06T08:36:27;9.50;42.80
14101;DHT22;7127;49.372;8.166;2023-04-06T08:38:54;9.50;42.70
14101;DHT22;7127;49.372;8.166;2023-04-06T08:41:21;9.60;42.80
14101;DHT22;7127;49.372;8.166;2023-04-06T08:43:54;9.70;42.80
14101;DHT22;7127;49.372;8.166;2023-04-06T08:46:22;9.80;42.80
14101;DHT22;7127;49.372;8.166;2023-04-06T08:48:55;9.80;42.90
14101;DHT22;7127;49.372;8.166;2023-04-06T08:51:23;10.00;42.00
14101;DHT22;7127;49.372;8.166;2023-04-06T08:53:50;9.90;42.70
14101;DHT22;7127;49.372;8.166;2023-04-06T08:56:20;10.20;42.00
14101;DHT22;7127;49.372;8.166;2023-04-06T08:58:47;10.20;41.90
14101;DHT22;7127;49.372;8.166;2023-04-06T09:01:18;10.30;41.90
14101;DHT22;7127;49.372;8.166;2023-04-06T09:03:49;10.40;41.90
14101;DHT22;7127;49.372;8.166;2023-04-06T09:06:16;10.50;42.00
14101;DHT22;7127;49.372;8.166;2023-04-06T09:08:43;10.60;42.00
14101;DHT22;7127;49.372;8.166;2023-04-06T09:11:10;10.80;42.20
14101;DHT22;7127;49.372;8.166;2023-04-06T09:13:47;10.90;42.20
14101;DHT22;7127;49.372;8.166;2023-04-06T09:16:16;11.00;42.20
14101;DHT22;7127;49.372;8.166;2023-04-06T09:18:44;11.10;42.10
14101;DHT22;7127;49.372;8.166;2023-04-06T09:21:11;11.20;42.10
14101;DHT22;7127;49.372;8.166;2023-04-06T09:23:38;11.30;42.00
14101;DHT22;7127;49.372;8.166;2023-04-06T09:26:07;11.40;42.00
14101;DHT22;7127;49.372;8.166;2023-04-06T09:28:45;11.50;42.00
14101;DHT22;7127;49.372;8.166;2023-04-06T09:31:12;11.70;41.90
14101;DHT22;7127;49.372;8.166;2023-04-06T09:33:43;11.70;41.90
14101;DHT22;7127;49.372;8.166;2023-04-06T09:36:10;11.90;41.90
14101;DHT22;7127;49.372;8.166;2023-04-06T09:38:51;11.90;41.80
14101;DHT22;7127;49.372;8.166;2023-04-06T09:41:21;12.10;41.80
14101;DHT22;7127;49.372;8.166;2023-04-06T09:43:49;12.20;41.80
14101;DHT22;7127;49.372;8.166;2023-04-06T09:46:16;12.30;41.70
14101;DHT22;7127;49.372;8.166;2023-04-06T09:48:45;12.40;41.70
14101;DHT22;7127;49.372;8.166;2023-04-06T09:51:14;12.50;41.60
14101;DHT22;7127;49.372;8.166;2023-04-06T09:53:42;12.60;41.50
14101;DHT22;7127;49.372;8.166;2023-04-06T09:56:12;12.70;41.40
14101;DHT22;7127;49.372;8.166;2023-04-06T09:58:44;12.80;41.30
14101;DHT22;7127;49.372;8.166;2023-04-06T10:01:15;12.90;41.20
14101;DHT22;7127;49.372;8.166;2023-04-06T10:03:52;12.90;41.00
14101;DHT22;7127;49.372;8.166;2023-04-06T10:06:26;13.10;41.10
14101;DHT22;7127;49.372;8.166;2023-04-06T10:08:55;13.20;41.30
14101;DHT22;7127;49.372;8.166;2023-04-06T10:11:23;13.30;41.20
14101;DHT22;7127;49.372;8.166;2023-04-06T10:13:50;13.40;41.80
14101;DHT22;7127;49.372;8.166;2023-04-06T10:16:17;13.60;41.30
14101;DHT22;7127;49.372;8.166;2023-04-06T10:18:49;13.50;41.00
14101;DHT22;7127;49.372;8.166;2023-04-06T10:21:20;13.60;40.80
14101;DHT22;7127;49.372;8.166;2023-04-06T10:23:51;13.70;40.90
14101;DHT22;7127;49.372;8.166;2023-04-06T10:26:20;13.90;41.00
14101;DHT22;7127;49.372;8.166;2023-04-06T10:28:49;14.00;40.80
14101;DHT22;7127;49.372;8.166;2023-04-06T10:31:24;14.10;40.60
14101;DHT22;7127;49.372;8.166;2023-04-06T10:33:57;14.20;40.30
14101;DHT22;7127;49.372;8.166;2023-04-06T10:36:26;14.30;40.30
14101;DHT22;7127;49.372;8.166;2023-04-06T10:38:55;14.40;40.20
14101;DHT22;7127;49.372;8.166;2023-04-06T10:41:24;14.50;40.00
14101;DHT22;7127;49.372;8.166;2023-04-06T10:44:03;14.60;39.60
14101;DHT22;7127;49.372;8.166;2023-04-06T10:46:31;14.70;39.60
14101;DHT22;7127;49.372;8.166;2023-04-06T10:49:10;14.80;39.50
14101;DHT22;7127;49.372;8.166;2023-04-06T10:51:39;14.90;39.30
14101;DHT22;7127;49.372;8.166;2023-04-06T10:54:09;15.10;39.70
14101;DHT22;7127;49.372;8.166;2023-04-06T10:56:40;15.20;39.70
14101;DHT22;7127;49.372;8.166;2023-04-06T10:59:07;15.30;39.40
14101;DHT22;7127;49.372;8.166;2023-04-06T11:01:44;15.40;39.40
14101;DHT22;7127;49.372;8.166;2023-04-06T11:04:16;15.70;39.10
14101;DHT22;7127;49.372;8.166;2023-04-06T11:06:46;15.70;39.60
14101;DHT22;7127;49.372;8.166;2023-04-06T11:09:23;15.90;38.80
14101;DHT22;7127;49.372;8.166;2023-04-06T11:11:51;16.00;38.40
14101;DHT22;7127;49.372;8.166;2023-04-06T11:14:19;16.10;38.50
14101;DHT22;7127;49.372;8.166;2023-04-06T11:16:47;16.20;38.30
14101;DHT22;7127;49.372;8.166;2023-04-06T11:19:17;16.40;38.30
14101;DHT22;7127;49.372;8.166;2023-04-06T11:21:45;16.50;37.90
14101;DHT22;7127;49.372;8.166;2023-04-06T11:24:14;16.60;37.80
14101;DHT22;7127;49.372;8.166;2023-04-06T11:26:43;16.60;37.50
14101;DHT22;7127;49.372;8.166;2023-04-06T11:29:11;16.80;37.40
14101;DHT22;7127;49.372;8.166;2023-04-06T11:31:40;16.80;37.10
14101;DHT22;7127;49.372;8.166;2023-04-06T11:34:12;16.90;37.30
14101;DHT22;7127;49.372;8.166;2023-04-06T11:36:44;17.00;36.80
14101;DHT22;7127;49.372;8.166;2023-04-06T11:39:13;17.10;36.70
14101;DHT22;7127;49.372;8.166;2023-04-06T11:41:40;17.10;36.60
14101;DHT22;7127;49.372;8.166;2023-04-06T11:44:07;17.20;36.60
14101;DHT22;7127;49.372;8.166;2023-04-06T11:46:35;17.30;36.40
14101;DHT22;7127;49.372;8.166;2023-04-06T11:49:02;17.30;36.10
14101;DHT22;7127;49.372;8.166;2023-04-06T11:51:30;17.40;35.90
14101;DHT22;7127;49.372;8.166;2023-04-06T11:54:03;17.40;35.70
14101;DHT22;7127;49.372;8.166;2023-04-06T11:56:30;17.40;35.60
14101;DHT22;7127;49.372;8.166;2023-04-06T11:58:58;17.50;35.70
14101;DHT22;7127;49.372;8.166;2023-04-06T12:01:26;17.50;35.50
14101;DHT22;7127;49.372;8.166;2023-04-06T12:03:53;17.50;35.20
14101;DHT22;7127;49.372;8.166;2023-04-06T12:06:20;17.60;35.00
14101;DHT22;7127;49.372;8.166;2023-04-06T12:08:48;17.60;34.90
14101;DHT22;7127;49.372;8.166;2023-04-06T12:11:16;17.60;34.90
14101;DHT22;7127;49.372;8.166;2023-04-06T12:13:45;17.60;34.70
14101;DHT22;7127;49.372;8.166;2023-04-06T12:16:12;17.60;34.70
14101;DHT22;7127;49.372;8.166;2023-04-06T12:18:40;17.70;34.70
14101;DHT22;7127;49.372;8.166;2023-04-06T12:21:07;17.60;34.40
14101;DHT22;7127;49.372;8.166;2023-04-06T12:23:35;17.70;34.50
14101;DHT22;7127;49.372;8.166;2023-04-06T12:26:04;17.70;34.20
14101;DHT22;7127;49.372;8.166;2023-04-06T12:28:32;17.70;34.10
14101;DHT22;7127;49.372;8.166;2023-04-06T12:30:59;17.80;34.10
14101;DHT22;7127;49.372;8.166;2023-04-06T12:33:26;17.80;34.10
14101;DHT22;7127;49.372;8.166;2023-04-06T12:35:53;17.80;34.00
14101;DHT22;7127;49.372;8.166;2023-04-06T12:38:21;17.80;33.80
14101;DHT22;7127;49.372;8.166;2023-04-06T12:40:48;17.90;33.80
14101;DHT22;7127;49.372;8.166;2023-04-06T12:43:15;17.90;33.50
14101;DHT22;7127;49.372;8.166;2023-04-06T12:45:43;17.90;33.50
14101;DHT22;7127;49.372;8.166;2023-04-06T12:48:10;17.90;33.40
14101;DHT22;7127;49.372;8.166;2023-04-06T12:50:37;18.00;34.00
14101;DHT22;7127;49.372;8.166;2023-04-06T12:53:04;18.00;33.30
14101;DHT22;7127;49.372;8.166;2023-04-06T12:55:32;17.90;33.00
14101;DHT22;7127;49.372;8.166;2023-04-06T12:58:01;18.00;33.10
14101;DHT22;7127;49.372;8.166;2023-04-06T13:00:28;18.10;33.20
14101;DHT22;7127;49.372;8.166;2023-04-06T13:02:58;18.10;33.00
14101;DHT22;7127;49.372;8.166;2023-04-06T13:05:25;18.20;33.10
14101;DHT22;7127;49.372;8.166;2023-04-06T13:07:52;18.20;33.10
14101;DHT22;7127;49.372;8.166;2023-04-06T13:10:19;18.20;32.90
14101;DHT22;7127;49.372;8.166;2023-04-06T13:17:55;18.40;32.80
14101;DHT22;7127;49.372;8.166;2023-04-06T13:56:38;18.70;31.80
14101;DHT22;7127;49.372;8.166;2023-04-06T13:59:05;18.80;31.80
14101;DHT22;7127;49.372;8.166;2023-04-06T14:01:33;18.80;31.70
14101;DHT22;7127;49.372;8.166;2023-04-06T14:04:00;18.80;31.70
14101;DHT22;7127;49.372;8.166;2023-04-06T14:06:27;18.80;31.60
14101;DHT22;7127;49.372;8.166;2023-04-06T14:08:54;18.80;31.60
14101;DHT22;7127;49.372;8.166;2023-04-06T14:11:22;18.80;31.50
14101;DHT22;7127;49.372;8.166;2023-04-06T14:13:50;18.80;31.50
14101;DHT22;7127;49.372;8.166;2023-04-06T14:16:17;18.90;31.50
14101;DHT22;7127;49.372;8.166;2023-04-06T14:18:45;18.80;31.50
14101;DHT22;7127;49.372;8.166;2023-04-06T14:21:12;18.80;31.30
14101;DHT22;7127;49.372;8.166;2023-04-06T14:23:38;18.70;31.20
14101;DHT22;7127;49.372;8.166;2023-04-06T14:26:07;18.70;31.10
14101;DHT22;7127;49.372;8.166;2023-04-06T14:28:35;18.80;31.10
14101;DHT22;7127;49.372;8.166;2023-04-06T14:31:11;18.80;31.00
14101;DHT22;7127;49.372;8.166;2023-04-06T14:33:39;18.80;30.80
14101;DHT22;7127;49.372;8.166;2023-04-06T14:36:06;18.80;30.90
14101;DHT22;7127;49.372;8.166;2023-04-06T14:38:33;18.70;30.90
14101;DHT22;7127;49.372;8.166;2023-04-06T14:41:01;18.70;30.80
14101;DHT22;7127;49.372;8.166;2023-04-06T14:43:27;18.60;30.70
14101;DHT22;7127;49.372;8.166;2023-04-06T14:45:59;18.60;30.70
14101;DHT22;7127;49.372;8.166;2023-04-06T14:48:27;18.50;30.70
14101;DHT22;7127;49.372;8.166;2023-04-06T14:50:55;18.60;30.90
14101;DHT22;7127;49.372;8.166;2023-04-06T14:53:22;18.60;30.60
14101;DHT22;7127;49.372;8.166;2023-04-06T14:55:49;18.60;30.70
14101;DHT22;7127;49.372;8.166;2023-04-06T14:58:17;18.60;30.70
14101;DHT22;7127;49.372;8.166;2023-04-06T15:00:45;18.60;30.80
14101;DHT22;7127;49.372;8.166;2023-04-06T15:03:12;18.60;30.80
14101;DHT22;7127;49.372;8.166;2023-04-06T15:05:40;18.60;30.80
14101;DHT22;7127;49.372;8.166;2023-04-06T15:08:07;18.60;30.50
14101;DHT22;7127;49.372;8.166;2023-04-06T15:10:35;18.60;30.70
14101;DHT22;7127;49.372;8.166;2023-04-06T15:13:02;18.50;30.60
14101;DHT22;7127;49.372;8.166;2023-04-06T15:15:29;18.50;30.50
14101;DHT22;7127;49.372;8.166;2023-04-06T15:17:56;18.40;30.00
14101;DHT22;7127;49.372;8.166;2023-04-06T15:20:23;18.30;29.60
14101;DHT22;7127;49.372;8.166;2023-04-06T15:22:51;18.30;29.90
14101;DHT22;7127;49.372;8.166;2023-04-06T15:25:19;18.10;30.00
14101;DHT22;7127;49.372;8.166;2023-04-06T15:27:48;18.20;30.00
14101;DHT22;7127;49.372;8.166;2023-04-06T15:30:16;18.20;30.20
14101;DHT22;7127;49.372;8.166;2023-04-06T15:32:52;18.20;30.30
14101;DHT22;7127;49.372;8.166;2023-04-06T15:35:19;17.90;30.10
14101;DHT22;7127;49.372;8.166;2023-04-06T15:37:46;18.10;30.50
14101;DHT22;7127;49.372;8.166;2023-04-06T15:40:16;18.00;30.40
14101;DHT22;7127;49.372;8.166;2023-04-06T15:42:43;17.90;30.30
14101;DHT22;7127;49.372;8.166;2023-04-06T15:45:11;17.90;30.50
14101;DHT22;7127;49.372;8.166;2023-04-06T15:47:39;17.80;30.60
14101;DHT22;7127;49.372;8.166;2023-04-06T15:50:07;17.70;30.60
14101;DHT22;7127;49.372;8.166;2023-04-06T15:52:34;17.80;30.90
14101;DHT22;7127;49.372;8.166;2023-04-06T15:55:02;17.70;30.90
14101;DHT22;7127;49.372;8.166;2023-04-06T15:57:31;17.70;30.90
14101;DHT22;7127;49.372;8.166;2023-04-06T15:59:59;17.80;31.00
14101;DHT22;7127;49.372;8.166;2023-04-06T16:02:28;17.70;31.00
14101;DHT22;7127;49.372;8.166;2023-04-06T16:04:55;17.70;31.00
14101;DHT22;7127;49.372;8.166;2023-04-06T16:07:23;17.60;30.80
14101;DHT22;7127;49.372;8.166;2023-04-06T16:09:50;17.50;31.00
14101;DHT22;7127;49.372;8.166;2023-04-06T16:12:18;17.50;31.00
14101;DHT22;7127;49.372;8.166;2023-04-06T16:14:47;17.40;31.10
14101;DHT22;7127;49.372;8.166;2023-04-06T16:17:14;17.40;31.30
14101;DHT22;7127;49.372;8.166;2023-04-06T16:19:41;17.30;31.30
14101;DHT22;7127;49.372;8.166;2023-04-06T16:22:08;17.30;31.40
14101;DHT22;7127;49.372;8.166;2023-04-06T16:24:36;17.20;31.40
14101;DHT22;7127;49.372;8.166;2023-04-06T16:27:04;17.20;31.40
14101;DHT22;7127;49.372;8.166;2023-04-06T16:29:34;17.10;31.40
14101;DHT22;7127;49.372;8.166;2023-04-06T16:32:03;17.10;31.50
14101;DHT22;7127;49.372;8.166;2023-04-06T16:34:30;17.00;31.60
14101;DHT22;7127;49.372;8.166;2023-04-06T16:36:57;16.90;31.50
14101;DHT22;7127;49.372;8.166;2023-04-06T16:39:24;17.10;31.80
14101;DHT22;7127;49.372;8.166;2023-04-06T16:41:51;17.00;31.70
14101;DHT22;7127;49.372;8.166;2023-04-06T16:44:18;16.90;31.70
14101;DHT22;7127;49.372;8.166;2023-04-06T16:46:46;16.90;31.80
14101;DHT22;7127;49.372;8.166;2023-04-06T16:49:14;16.80;31.80
14101;DHT22;7127;49.372;8.166;2023-04-06T16:51:43;16.80;32.00